sensor_id;sensor_type;location;lat;lon;timestamp;temperature;humidity
51175;DHT22;37240;50.104;20.010;2023-02-11T00:03:34;3.70;90.70
51175;DHT22;37240;50.104;20.010;2023-02-11T00:08:35;3.60;90.90
51175;DHT22;37240;50.104;20.010;2023-02-11T00:13:36;3.60;91.00
51175;DHT22;37240;50.104;20.010;2023-02-11T00:18:37;3.50;91.10
51175;DHT22;37240;50.104;20.010;2023-02-11T00:23:38;3.40;91.10
51175;DHT22;37240;50.104;20.010;2023-02-11T00:28:39;3.40;91.20
51175;DHT22;37240;50.104;20.010;2023-02-11T00:33:39;3.30;91.20
51175;DHT22;37240;50.104;20.010;2023-02-11T00:38:42;3.30;91.40
51175;DHT22;37240;50.104;20.010;2023-02-11T00:43:43;3.30;91.50
51175;DHT22;37240;50.104;20.010;2023-02-11T00:48:44;3.20;91.80
51175;DHT22;37240;50.104;20.010;2023-02-11T00:53:44;3.20;91.80
51175;DHT22;37240;50.104;20.010;2023-02-11T00:58:45;3.10;91.80
51175;DHT22;37240;50.104;20.010;2023-02-11T01:03:45;3.10;91.80
51175;DHT22;37240;50.104;20.010;2023-02-11T01:08:46;3.10;91.90
51175;DHT22;37240;50.104;20.010;2023-02-11T01:13:48;3.00;91.90
51175;DHT22;37240;50.104;20.010;2023-02-11T01:18:49;3.00;92.00
51175;DHT22;37240;50.104;20.010;2023-02-11T01:23:49;3.00;92.20
51175;DHT22;37240;50.104;20.010;2023-02-11T01:28:50;3.00;92.20
51175;DHT22;37240;50.104;20.010;2023-02-11T01:33:50;3.00;92.40
51175;DHT22;37240;50.104;20.010;2023-02-11T01:38:51;2.90;92.50
51175;DHT22;37240;50.104;20.010;2023-02-11T01:43:51;2.90;92.60
51175;DHT22;37240;50.104;20.010;2023-02-11T01:48:56;2.80;92.70
51175;DHT22;37240;50.104;20.010;2023-02-11T01:53:59;2.70;92.90
51175;DHT22;37240;50.104;20.010;2023-02-11T01:59:05;2.70;93.00
51175;DHT22;37240;50.104;20.010;2023-02-11T02:04:07;2.60;93.20
51175;DHT22;37240;50.104;20.010;2023-02-11T02:09:18;2.70;93.30
51175;DHT22;37240;50.104;20.010;2023-02-11T02:14:21;2.70;93.30
51175;DHT22;37240;50.104;20.010;2023-02-11T02:25:16;2.70;93.60
51175;DHT22;37240;50.104;20.010;2023-02-11T02:30:45;2.70;93.60
51175;DHT22;37240;50.104;20.010;2023-02-11T02:36:01;2.70;93.60
51175;DHT22;37240;50.104;20.010;2023-02-11T02:41:07;2.70;93.80
51175;DHT22;37240;50.104;20.010;2023-02-11T02:46:24;2.60;93.70
51175;DHT22;37240;50.104;20.010;2023-02-11T02:56:55;2.60;93.80
51175;DHT22;37240;50.104;20.010;2023-02-11T03:02:09;2.60;93.80
51175;DHT22;37240;50.104;20.010;2023-02-11T03:07:19;2.60;93.70
51175;DHT22;37240;50.104;20.010;2023-02-11T03:12:23;2.60;93.80
51175;DHT22;37240;50.104;20.010;2023-02-11T03:17:27;2.70;93.90
51175;DHT22;37240;50.104;20.010;2023-02-11T03:22:44;2.70;93.90
51175;DHT22;37240;50.104;20.010;2023-02-11T03:27:55;2.60;94.00
51175;DHT22;37240;50.104;20.010;2023-02-11T03:33:02;2.60;93.90
51175;DHT22;37240;50.104;20.010;2023-02-11T03:38:13;2.60;94.00
51175;DHT22;37240;50.104;20.010;2023-02-11T03:43:20;2.70;94.00
51175;DHT22;37240;50.104;20.010;2023-02-11T03:53:47;2.70;93.70
51175;DHT22;37240;50.104;20.010;2023-02-11T03:58:49;2.80;93.70
51175;DHT22;37240;50.104;20.010;2023-02-11T04:03:49;2.80;93.70
51175;DHT22;37240;50.104;20.010;2023-02-11T04:08:50;2.80;93.60
51175;DHT22;37240;50.104;20.010;2023-02-11T04:13:50;2.90;93.60
51175;DHT22;37240;50.104;20.010;2023-02-11T04:18:51;2.90;93.40
51175;DHT22;37240;50.104;20.010;2023-02-11T04:23:51;2.90;93.30
51175;DHT22;37240;50.104;20.010;2023-02-11T04:28:52;3.00;93.30
51175;DHT22;37240;50.104;20.010;2023-02-11T04:33:52;3.00;93.20
51175;DHT22;37240;50.104;20.010;2023-02-11T04:38:53;3.00;93.30
51175;DHT22;37240;50.104;20.010;2023-02-11T04:43:53;3.00;93.20
51175;DHT22;37240;50.104;20.010;2023-02-11T04:48:55;3.10;93.20
51175;DHT22;37240;50.104;20.010;2023-02-11T04:53:56;3.10;93.20
51175;DHT22;37240;50.104;20.010;2023-02-11T04:58:57;3.00;93.40
51175;DHT22;37240;50.104;20.010;2023-02-11T05:03:57;3.10;93.40
51175;DHT22;37240;50.104;20.010;2023-02-11T05:08:58;3.10;93.40
51175;DHT22;37240;50.104;20.010;2023-02-11T05:13:58;3.10;93.40
51175;DHT22;37240;50.104;20.010;2023-02-11T05:18:59;3.10;93.50
51175;DHT22;37240;50.104;20.010;2023-02-11T05:24:00;3.10;93.70
51175;DHT22;37240;50.104;20.010;2023-02-11T05:29:00;3.10;93.60
51175;DHT22;37240;50.104;20.010;2023-02-11T05:34:01;3.10;93.70
51175;DHT22;37240;50.104;20.010;2023-02-11T05:39:01;3.10;93.80
51175;DHT22;37240;50.104;20.010;2023-02-11T05:44:02;3.10;93.90
51175;DHT22;37240;50.104;20.010;2023-02-11T05:49:03;3.20;93.90
51175;DHT22;37240;50.104;20.010;2023-02-11T05:54:03;3.20;93.90
51175;DHT22;37240;50.104;20.010;2023-02-11T05:59:04;3.20;94.00
51175;DHT22;37240;50.104;20.010;2023-02-11T06:04:05;3.20;94.10
51175;DHT22;37240;50.104;20.010;2023-02-11T06:09:05;3.20;94.20
51175;DHT22;37240;50.104;20.010;2023-02-11T06:14:06;3.20;94.10
51175;DHT22;37240;50.104;20.010;2023-02-11T06:19:06;3.20;94.20
51175;DHT22;37240;50.104;20.010;2023-02-11T06:24:07;3.10;94.20
51175;DHT22;37240;50.104;20.010;2023-02-11T06:29:07;3.00;94.60
51175;DHT22;37240;50.104;20.010;2023-02-11T06:34:08;3.00;95.00
51175;DHT22;37240;50.104;20.010;2023-02-11T06:39:09;3.20;95.00
51175;DHT22;37240;50.104;20.010;2023-02-11T06:44:11;3.20;94.90
51175;DHT22;37240;50.104;20.010;2023-02-11T06:49:12;3.30;94.70
51175;DHT22;37240;50.104;20.010;2023-02-11T06:54:12;3.40;94.60
51175;DHT22;37240;50.104;20.010;2023-02-11T06:59:15;3.40;94.50
51175;DHT22;37240;50.104;20.010;2023-02-11T07:04:16;3.50;94.20
51175;DHT22;37240;50.104;20.010;2023-02-11T07:09:16;3.60;93.90
51175;DHT22;37240;50.104;20.010;2023-02-11T07:14:17;3.70;93.70
51175;DHT22;37240;50.104;20.010;2023-02-11T07:19:17;3.90;93.40
51175;DHT22;37240;50.104;20.010;2023-02-11T07:24:18;4.00;93.10
51175;DHT22;37240;50.104;20.010;2023-02-11T07:29:18;4.10;93.10
51175;DHT22;37240;50.104;20.010;2023-02-11T07:34:19;4.20;93.00
51175;DHT22;37240;50.104;20.010;2023-02-11T07:39:19;4.20;92.90
51175;DHT22;37240;50.104;20.010;2023-02-11T07:44:20;4.20;93.10
51175;DHT22;37240;50.104;20.010;2023-02-11T07:49:21;4.20;93.20
51175;DHT22;37240;50.104;20.010;2023-02-11T07:54:21;4.30;93.20
51175;DHT22;37240;50.104;20.010;2023-02-11T07:59:22;4.40;93.00
51175;DHT22;37240;50.104;20.010;2023-02-11T08:04:22;4.80;92.70
51175;DHT22;37240;50.104;20.010;2023-02-11T08:09:23;5.10;92.20
51175;DHT22;37240;50.104;20.010;2023-02-11T08:14:23;5.30;91.70
51175;DHT22;37240;50.104;20.010;2023-02-11T08:19:24;5.60;91.00
51175;DHT22;37240;50.104;20.010;2023-02-11T08:24:24;5.80;90.40
51175;DHT22;37240;50.104;20.010;2023-02-11T08:29:25;6.20;90.20
51175;DHT22;37240;50.104;20.010;2023-02-11T08:34:25;6.50;88.00
51175;DHT22;37240;50.104;20.010;2023-02-11T08:39:26;6.70;86.00
51175;DHT22;37240;50.104;20.010;2023-02-11T08:44:26;7.00;84.70
51175;DHT22;37240;50.104;20.010;2023-02-11T08:49:27;7.30;82.80
51175;DHT22;37240;50.104;20.010;2023-02-11T08:54:28;7.70;81.00
51175;DHT22;37240;50.104;20.010;2023-02-11T08:59:28;8.00;78.70
51175;DHT22;37240;50.104;20.010;2023-02-11T09:04:29;8.20;77.40
51175;DHT22;37240;50.104;20.010;2023-02-11T09:09:29;8.30;75.00
51175;DHT22;37240;50.104;20.010;2023-02-11T09:14:30;8.40;73.70
51175;DHT22;37240;50.104;20.010;2023-02-11T09:19:30;8.60;73.20
51175;DHT22;37240;50.104;20.010;2023-02-11T09:24:31;8.90;72.50
51175;DHT22;37240;50.104;20.010;2023-02-11T09:29:32;8.90;70.00
51175;DHT22;37240;50.104;20.010;2023-02-11T09:34:32;8.80;70.20
51175;DHT22;37240;50.104;20.010;2023-02-11T09:39:33;8.90;70.20
51175;DHT22;37240;50.104;20.010;2023-02-11T09:44:35;8.70;70.30
51175;DHT22;37240;50.104;20.010;2023-02-11T09:49:42;8.70;69.90
51175;DHT22;37240;50.104;20.010;2023-02-11T09:59:52;8.70;70.00
51175;DHT22;37240;50.104;20.010;2023-02-11T10:15:49;8.50;70.90
51175;DHT22;37240;50.104;20.010;2023-02-11T10:26:35;8.20;71.70
51175;DHT22;37240;50.104;20.010;2023-02-11T10:31:41;8.20;72.40
51175;DHT22;37240;50.104;20.010;2023-02-11T10:36:44;8.30;72.30
51175;DHT22;37240;50.104;20.010;2023-02-11T10:41:54;8.30;72.30
51175;DHT22;37240;50.104;20.010;2023-02-11T10:46:56;8.20;72.80
51175;DHT22;37240;50.104;20.010;2023-02-11T10:57:18;8.40;72.70
51175;DHT22;37240;50.104;20.010;2023-02-11T11:02:20;8.50;72.10
51175;DHT22;37240;50.104;20.010;2023-02-11T11:07:25;8.50;71.80
51175;DHT22;37240;50.104;20.010;2023-02-11T11:12:47;8.60;72.10
51175;DHT22;37240;50.104;20.010;2023-02-11T11:23:17;8.50;71.20
51175;DHT22;37240;50.104;20.010;2023-02-11T11:28:22;8.50;72.30
51175;DHT22;37240;50.104;20.010;2023-02-11T11:33:26;8.50;71.80
51175;DHT22;37240;50.104;20.010;2023-02-11T11:38:29;8.50;72.70
51175;DHT22;37240;50.104;20.010;2023-02-11T11:43:31;8.70;72.80
51175;DHT22;37240;50.104;20.010;2023-02-11T11:48:38;8.90;72.80
51175;DHT22;37240;50.104;20.010;2023-02-11T11:53:40;8.70;71.60
51175;DHT22;37240;50.104;20.010;2023-02-11T11:58:43;8.60;72.70
51175;DHT22;37240;50.104;20.010;2023-02-11T12:35:16;8.10;78.10
51175;DHT22;37240;50.104;20.010;2023-02-11T12:40:21;8.20;78.70
51175;DHT22;37240;50.104;20.010;2023-02-11T12:56:21;7.90;81.20
51175;DHT22;37240;50.104;20.010;2023-02-11T13:01:35;7.80;81.60
51175;DHT22;37240;50.104;20.010;2023-02-11T13:06:42;7.70;83.40
51175;DHT22;37240;50.104;20.010;2023-02-11T13:11:48;7.70;83.40
51175;DHT22;37240;50.104;20.010;2023-02-11T13:16:51;7.60;86.00
51175;DHT22;37240;50.104;20.010;2023-02-11T13:27:14;7.50;89.50
51175;DHT22;37240;50.104;20.010;2023-02-11T13:32:17;7.50;90.40
51175;DHT22;37240;50.104;20.010;2023-02-11T13:37:19;7.40;91.00
51175;DHT22;37240;50.104;20.010;2023-02-11T13:42:21;7.40;91.90
51175;DHT22;37240;50.104;20.010;2023-02-11T13:47:28;7.30;92.60
51175;DHT22;37240;50.104;20.010;2023-02-11T13:52:31;7.30;93.00
51175;DHT22;37240;50.104;20.010;2023-02-11T13:57:35;7.30;93.10
51175;DHT22;37240;50.104;20.010;2023-02-11T14:02:36;7.30;93.00
51175;DHT22;37240;50.104;20.010;2023-02-11T14:07:37;7.20;93.50
51175;DHT22;37240;50.104;20.010;2023-02-11T14:12:38;7.20;93.60
51175;DHT22;37240;50.104;20.010;2023-02-11T14:17:38;7.10;93.70
51175;DHT22;37240;50.104;20.010;2023-02-11T14:22:43;7.10;94.10
51175;DHT22;37240;50.104;20.010;2023-02-11T14:27:59;7.10;94.40
51175;DHT22;37240;50.104;20.010;2023-02-11T14:33:06;7.10;94.60
51175;DHT22;37240;50.104;20.010;2023-02-11T14:38:39;7.00;94.90
51175;DHT22;37240;50.104;20.010;2023-02-11T14:43:46;6.90;95.50
51175;DHT22;37240;50.104;20.010;2023-02-11T14:48:51;6.90;95.90
51175;DHT22;37240;50.104;20.010;2023-02-11T14:53:56;6.90;96.10
51175;DHT22;37240;50.104;20.010;2023-02-11T14:58:57;6.90;96.30
51175;DHT22;37240;50.104;20.010;2023-02-11T15:03:58;6.90;95.90
51175;DHT22;37240;50.104;20.010;2023-02-11T15:14:18;6.80;96.60
51175;DHT22;37240;50.104;20.010;2023-02-11T15:19:29;6.70;97.70
51175;DHT22;37240;50.104;20.010;2023-02-11T15:24:34;6.60;98.50
51175;DHT22;37240;50.104;20.010;2023-02-11T15:29:40;6.50;98.90
51175;DHT22;37240;50.104;20.010;2023-02-11T15:34:41;6.50;99.30
51175;DHT22;37240;50.104;20.010;2023-02-11T15:39:42;6.40;99.90
51175;DHT22;37240;50.104;20.010;2023-02-11T15:44:43;6.40;99.90
51175;DHT22;37240;50.104;20.010;2023-02-11T15:49:44;6.40;99.90
51175;DHT22;37240;50.104;20.010;2023-02-11T15:54:46;6.30;99.90
51175;DHT22;37240;50.104;20.010;2023-02-11T15:59:52;6.30;99.90
51175;DHT22;37240;50.104;20.010;2023-02-11T16:05:06;6.30;99.90
51175;DHT22;37240;50.104;20.010;2023-02-11T16:10:25;6.20;99.90
51175;DHT22;37240;50.104;20.010;2023-02-11T16:20:33;6.10;99.90
51175;DHT22;37240;50.104;20.010;2023-02-11T16:25:34;6.10;99.90
51175;DHT22;37240;50.104;20.010;2023-02-11T16:30:36;6.00;99.90
51175;DHT22;37240;50.104;20.010;2023-02-11T16:35:37;6.10;99.90
51175;DHT22;37240;50.104;20.010;2023-02-11T16:40:38;6.00;99.90
51175;DHT22;37240;50.104;20.010;2023-02-11T16:45:38;6.00;99.90
51175;DHT22;37240;50.104;20.010;2023-02-11T16:50:44;6.00;99.90
51175;DHT22;37240;50.104;20.010;2023-02-11T16:55:45;6.00;99.90
51175;DHT22;37240;50.104;20.010;2023-02-11T17:00:46;6.00;99.90
51175;DHT22;37240;50.104;20.010;2023-02-11T17:05:47;5.90;99.90
51175;DHT22;37240;50.104;20.010;2023-02-11T17:10:48;5.90;99.90
51175;DHT22;37240;50.104;20.010;2023-02-11T17:15:48;5.90;99.90
51175;DHT22;37240;50.104;20.010;2023-02-11T17:20:49;5.90;99.90
51175;DHT22;37240;50.104;20.010;2023-02-11T17:25:56;6.00;99.90
51175;DHT22;37240;50.104;20.010;2023-02-11T17:30:56;5.90;99.90
51175;DHT22;37240;50.104;20.010;2023-02-11T17:35:57;6.00;99.90
51175;DHT22;37240;50.104;20.010;2023-02-11T17:40:59;6.00;99.90
51175;DHT22;37240;50.104;20.010;2023-02-11T17:46:00;6.00;99.90
51175;DHT22;37240;50.104;20.010;2023-02-11T17:51:00;6.00;99.90
51175;DHT22;37240;50.104;20.010;2023-02-11T17:56:01;5.90;99.90
51175;DHT22;37240;50.104;20.010;2023-02-11T18:01:02;5.80;99.90
51175;DHT22;37240;50.104;20.010;2023-02-11T18:06:04;5.80;99.90
51175;DHT22;37240;50.104;20.010;2023-02-11T18:11:08;5.80;99.90
51175;DHT22;37240;50.104;20.010;2023-02-11T18:16:09;5.80;99.90
51175;DHT22;37240;50.104;20.010;2023-02-11T18:21:18;5.80;99.90
51175;DHT22;37240;50.104;20.010;2023-02-11T18:26:20;5.80;99.90
51175;DHT22;37240;50.104;20.010;2023-02-11T18:31:20;5.70;99.90
51175;DHT22;37240;50.104;20.010;2023-02-11T18:36:21;5.70;99.90
51175;DHT22;37240;50.104;20.010;2023-02-11T18:41:22;5.80;99.90
51175;DHT22;37240;50.104;20.010;2023-02-11T18:46:23;5.80;99.90
51175;DHT22;37240;50.104;20.010;2023-02-11T18:51:24;5.80;99.90
51175;DHT22;37240;50.104;20.010;2023-02-11T18:56:25;5.80;99.90
51175;DHT22;37240;50.104;20.010;2023-02-11T19:01:27;5.70;99.90
51175;DHT22;37240;50.104;20.010;2023-02-11T19:06:31;5.70;99.90
51175;DHT22;37240;50.104;20.010;2023-02-11T19:11:32;5.70;99.90
51175;DHT22;37240;50.104;20.010;2023-02-11T19:16:33;5.70;99.90
51175;DHT22;37240;50.104;20.010;2023-02-11T19:21:34;5.80;99.90
51175;DHT22;37240;50.104;20.010;2023-02-11T19:26:35;5.80;99.90
51175;DHT22;37240;50.104;20.010;2023-02-11T19:31:36;5.80;99.90
51175;DHT22;37240;50.104;20.010;2023-02-11T19:36:37;5.80;99.90
51175;DHT22;37240;50.104;20.010;2023-02-11T19:41:37;5.80;99.90
51175;DHT22;37240;50.104;20.010;2023-02-11T19:46:38;5.70;99.90
51175;DHT22;37240;50.104;20.010;2023-02-11T19:51:39;5.70;99.90
51175;DHT22;37240;50.104;20.010;2023-02-11T19:56:40;5.70;99.90
51175;DHT22;37240;50.104;20.010;2023-02-11T20:01:40;5.80;99.90
51175;DHT22;37240;50.104;20.010;2023-02-11T20:06:41;5.80;99.90
51175;DHT22;37240;50.104;20.010;2023-02-11T20:11:42;5.80;99.90
51175;DHT22;37240;50.104;20.010;2023-02-11T20:16:42;5.80;99.90
51175;DHT22;37240;50.104;20.010;2023-02-11T20:21:44;5.80;99.90
51175;DHT22;37240;50.104;20.010;2023-02-11T20:26:45;5.80;99.90
51175;DHT22;37240;50.104;20.010;2023-02-11T20:31:47;5.90;99.90
51175;DHT22;37240;50.104;20.010;2023-02-11T20:36:48;5.90;99.90
51175;DHT22;37240;50.104;20.010;2023-02-11T20:41:49;5.90;99.90
51175;DHT22;37240;50.104;20.010;2023-02-11T20:46:51;6.00;99.90
51175;DHT22;37240;50.104;20.010;2023-02-11T20:51:51;6.00;99.90
51175;DHT22;37240;50.104;20.010;2023-02-11T20:56:52;6.00;99.90
51175;DHT22;37240;50.104;20.010;2023-02-11T21:01:55;6.00;99.90
51175;DHT22;37240;50.104;20.010;2023-02-11T21:06:58;6.10;99.90
51175;DHT22;37240;50.104;20.010;2023-02-11T21:11:59;6.10;99.90
51175;DHT22;37240;50.104;20.010;2023-02-11T21:17:00;6.10;99.90
51175;DHT22;37240;50.104;20.010;2023-02-11T21:22:00;6.10;99.90
51175;DHT22;37240;50.104;20.010;2023-02-11T21:27:01;6.00;99.90
51175;DHT22;37240;50.104;20.010;2023-02-11T21:32:01;6.00;99.90
51175;DHT22;37240;50.104;20.010;2023-02-11T21:37:02;6.10;99.90
51175;DHT22;37240;50.104;20.010;2023-02-11T21:42:03;6.10;99.90
51175;DHT22;37240;50.104;20.010;2023-02-11T21:47:03;6.10;99.90
51175;DHT22;37240;50.104;20.010;2023-02-11T21:52:04;6.20;99.90
51175;DHT22;37240;50.104;20.010;2023-02-11T21:57:04;6.20;99.90
51175;DHT22;37240;50.104;20.010;2023-02-11T22:02:05;6.20;99.90
51175;DHT22;37240;50.104;20.010;2023-02-11T22:07:05;6.20;99.90
51175;DHT22;37240;50.104;20.010;2023-02-11T22:12:07;6.20;99.90
51175;DHT22;37240;50.104;20.010;2023-02-11T22:17:07;6.20;99.90
51175;DHT22;37240;50.104;20.010;2023-02-11T22:22:08;6.20;99.90
51175;DHT22;37240;50.104;20.010;2023-02-11T22:27:08;6.20;99.90
51175;DHT22;37240;50.104;20.010;2023-02-11T22:32:09;6.10;99.90
51175;DHT22;37240;50.104;20.010;2023-02-11T22:37:10;6.20;99.90
51175;DHT22;37240;50.104;20.010;2023-02-11T22:42:10;6.10;99.90
51175;DHT22;37240;50.104;20.010;2023-02-11T22:47:11;6.10;99.90
51175;DHT22;37240;50.104;20.010;2023-02-11T22:52:11;6.10;99.90
51175;DHT22;37240;50.104;20.010;2023-02-11T22:57:12;6.10;99.90
51175;DHT22;37240;50.104;20.010;2023-02-11T23:02:12;6.10;99.90
51175;DHT22;37240;50.104;20.010;2023-02-11T23:07:13;6.10;99.90
51175;DHT22;37240;50.104;20.010;2023-02-11T23:12:13;6.10;99.90
51175;DHT22;37240;50.104;20.010;2023-02-11T23:17:14;6.10;99.90
51175;DHT22;37240;50.104;20.010;2023-02-11T23:22:14;6.00;99.90
51175;DHT22;37240;50.104;20.010;2023-02-11T23:27:15;6.00;99.90
51175;DHT22;37240;50.104;20.010;2023-02-11T23:32:16;6.00;99.90
51175;DHT22;37240;50.104;20.010;2023-02-11T23:37:16;6.00;99.90
51175;DHT22;37240;50.104;20.010;2023-02-11T23:42:17;6.00;99.90
51175;DHT22;37240;50.104;20.010;2023-02-11T23:47:17;5.90;99.90
51175;DHT22;37240;50.104;20.010;2023-02-11T23:52:18;6.00;99.90
51175;DHT22;37240;50.104;20.010;2023-02-11T23:57:18;5.90;99.90
